Terminal Aerodrome Forecast
Issued by NWS Chicago, IL

Home | Current Version | Previous Version | Text Only | Print | Product List | Glossary Off
Versions: 1 2 3 4 5 6 7 8 9 10 11 12 13 14 15 16 17 18 19 20 21 22 23 24 25

000
FTUS43 KLOT 180520
TAFRFD
TAF
KRFD 180520Z 1806/1906 20008KT P6SM SKC
     FM181500 19013G22KT P6SM SKC
     FM181900 21016G26KT P6SM FEW250
     FM190000 20009KT P6SM FEW250=

USA.gov is the U.S. government's official web portal to all federal, state and local government web resources and services.